Time;durP1;ratioP1;P1;durP2;ratioP2;P2;SDS_P1;SDS_P2;PMS_P1;PMS_P2;Temp;Humidity;BMP_temperature;BMP_pressure;BME280_temperature;BME280_humidity;BME280_pressure;Samples;Min_cycle;Max_cycle;Signal;HPM_P1;HPM_P2
2020/12/18 00:00:05;;;;;;;1.25;0.80;;;7.10;99.90;;;;;;4385517;32;20062;-57
2020/12/18 00:02:30;;;;;;;1.08;0.95;;;7.10;99.90;;;;;;4385087;32;20424;-57
2020/12/18 00:04:56;;;;;;;0.60;0.47;;;7.10;99.90;;;;;;4388315;32;20065;-56
2020/12/18 00:07:23;;;;;;;0.68;0.68;;;7.10;99.90;;;;;;4401214;32;20062;-56
2020/12/18 00:09:48;;;;;;;1.85;0.85;;;7.20;99.90;;;;;;4396614;32;20122;-56
2020/12/18 00:12:14;;;;;;;2.35;1.08;;;7.20;99.90;;;;;;4400644;32;20082;-57
2020/12/18 00:14:39;;;;;;;0.32;0.32;;;7.30;99.90;;;;;;4399521;32;20495;-58
2020/12/18 00:17:05;;;;;;;0.50;0.50;;;7.30;99.90;;;;;;4400774;32;20066;-57
2020/12/18 00:19:31;;;;;;;1.15;0.95;;;7.30;99.90;;;;;;4398939;32;20070;-55
2020/12/18 00:21:57;;;;;;;0.65;0.65;;;7.10;99.90;;;;;;4400579;32;20447;-58
2020/12/18 00:24:23;;;;;;;0.50;0.50;;;7.20;99.90;;;;;;4384796;32;20275;-54
2020/12/18 00:26:49;;;;;;;1.00;0.90;;;7.20;99.90;;;;;;4384852;32;20453;-58
2020/12/18 00:29:14;;;;;;;0.40;0.40;;;7.10;99.90;;;;;;4386264;32;20066;-58
2020/12/18 00:31:40;;;;;;;0.60;0.60;;;7.10;99.90;;;;;;4386627;32;20554;-53
2020/12/18 00:34:06;;;;;;;0.57;0.57;;;7.10;99.90;;;;;;4372469;32;20070;-55
2020/12/18 00:36:31;;;;;;;0.50;0.50;;;7.00;99.90;;;;;;4384597;32;20094;-57
2020/12/18 00:38:56;;;;;;;1.25;1.02;;;7.00;99.90;;;;;;4385937;32;20402;-58
2020/12/18 00:41:22;;;;;;;3.83;0.70;;;6.90;99.90;;;;;;4384687;32;20083;-55
2020/12/18 00:43:47;;;;;;;1.27;0.50;;;7.00;99.90;;;;;;4384948;32;20519;-57
2020/12/18 00:46:13;;;;;;;2.20;0.80;;;7.00;99.90;;;;;;4385769;32;20079;-54
2020/12/18 00:48:38;;;;;;;1.80;1.17;;;6.90;99.90;;;;;;4385600;32;20523;-55
2020/12/18 00:51:04;;;;;;;0.80;0.80;;;6.90;99.90;;;;;;4385010;32;20082;-54
2020/12/18 00:53:29;;;;;;;0.75;0.75;;;6.90;99.90;;;;;;4384314;32;20058;-54
2020/12/18 00:55:55;;;;;;;0.80;0.80;;;6.90;99.90;;;;;;4384300;32;20650;-55
2020/12/18 00:58:20;;;;;;;0.62;0.60;;;6.90;99.90;;;;;;4384798;32;20062;-51
2020/12/18 01:00:46;;;;;;;4.03;0.93;;;6.90;99.90;;;;;;4385858;32;20114;-57
2020/12/18 01:03:12;;;;;;;1.83;0.85;;;7.00;99.90;;;;;;4384629;32;20117;-55
2020/12/18 01:05:37;;;;;;;2.58;1.15;;;6.90;99.90;;;;;;4390845;32;20077;-58
2020/12/18 01:08:03;;;;;;;0.70;0.70;;;6.90;99.90;;;;;;4399868;32;20058;-55
2020/12/18 01:10:28;;;;;;;3.03;0.82;;;6.80;99.90;;;;;;4394868;32;20070;-54
2020/12/18 01:12:54;;;;;;;1.48;0.80;;;6.90;99.90;;;;;;4384146;32;20241;-56
2020/12/18 01:15:20;;;;;;;1.85;0.98;;;6.90;99.90;;;;;;4384799;32;20481;-57
2020/12/18 01:17:45;;;;;;;6.93;0.82;;;6.90;99.90;;;;;;4391135;32;20066;-58
2020/12/18 01:20:11;;;;;;;0.55;0.55;;;6.90;99.90;;;;;;4399609;32;20057;-56
2020/12/18 01:22:36;;;;;;;0.85;0.85;;;7.00;99.90;;;;;;4395620;32;20065;-57
2020/12/18 01:25:02;;;;;;;0.43;0.37;;;7.00;99.90;;;;;;4384544;32;20066;-59
2020/12/18 01:27:28;;;;;;;4.90;1.23;;;7.00;99.90;;;;;;4383133;32;20078;-53
2020/12/18 01:29:53;;;;;;;2.25;0.98;;;7.00;99.90;;;;;;4384698;32;20070;-54
2020/12/18 01:32:19;;;;;;;0.57;0.57;;;7.00;99.90;;;;;;4385520;32;20099;-56
2020/12/18 01:34:45;;;;;;;0.40;0.40;;;7.10;99.90;;;;;;4385381;32;20469;-53
2020/12/18 01:37:11;;;;;;;0.80;0.80;;;7.10;99.90;;;;;;4384280;32;20058;-55
2020/12/18 01:39:36;;;;;;;2.87;0.77;;;7.10;99.90;;;;;;4385362;32;20628;-54
2020/12/18 01:42:03;;;;;;;0.80;0.77;;;7.10;99.90;;;;;;4385410;32;20073;-55
2020/12/18 01:44:28;;;;;;;6.68;0.80;;;7.10;99.90;;;;;;4384716;32;20066;-59
2020/12/18 01:46:54;;;;;;;2.15;0.77;;;7.00;99.90;;;;;;4384710;32;20079;-58
2020/12/18 01:49:20;;;;;;;0.80;0.80;;;7.00;99.90;;;;;;4384461;32;20074;-55
2020/12/18 01:51:49;;;;;;;1.50;0.75;;;7.00;99.90;;;;;;4385101;32;20070;-57
2020/12/18 01:54:18;;;;;;;0.57;0.57;;;7.10;99.90;;;;;;4383858;32;20417;-58
2020/12/18 01:56:44;;;;;;;0.40;0.40;;;7.10;99.90;;;;;;4384343;32;20137;-57
2020/12/18 01:59:09;;;;;;;0.55;0.55;;;7.00;99.90;;;;;;4385108;32;20078;-56
2020/12/18 02:01:35;;;;;;;0.60;0.60;;;7.00;99.90;;;;;;4385266;32;20495;-59
2020/12/18 02:04:01;;;;;;;0.90;0.88;;;7.10;99.90;;;;;;4383042;32;20492;-58
2020/12/18 02:06:30;;;;;;;1.55;0.70;;;7.10;99.90;;;;;;4395009;32;20066;-53
2020/12/18 02:08:56;;;;;;;0.40;0.40;;;7.00;99.90;;;;;;4400254;32;20456;-57
2020/12/18 02:11:22;;;;;;;1.00;0.73;;;7.00;99.90;;;;;;4388684;32;20091;-56
2020/12/18 02:13:52;;;;;;;0.68;0.68;;;7.00;99.90;;;;;;4384169;32;20074;-59
2020/12/18 02:16:18;;;;;;;3.00;1.12;;;7.00;99.90;;;;;;4382912;32;20397;-54
2020/12/18 02:18:45;;;;;;;2.92;0.93;;;7.00;99.90;;;;;;4396363;32;20133;-54
2020/12/18 02:21:10;;;;;;;0.65;0.65;;;7.00;99.90;;;;;;4397720;32;20123;-53
2020/12/18 02:23:40;;;;;;;0.20;0.20;;;7.00;99.90;;;;;;4387573;32;20092;-55
2020/12/18 02:26:11;;;;;;;1.77;1.17;;;7.00;99.90;;;;;;4383176;32;20087;-55
2020/12/18 02:28:39;;;;;;;1.17;0.98;;;7.00;99.90;;;;;;4383124;32;20058;-54
2020/12/18 02:31:05;;;;;;;0.80;0.80;;;7.00;99.90;;;;;;4384405;32;20062;-53
2020/12/18 02:33:31;;;;;;;16.23;0.82;;;7.00;99.90;;;;;;4382794;32;20058;-56
2020/12/18 02:35:59;;;;;;;0.60;0.60;;;6.90;99.90;;;;;;4383985;32;20091;-58
2020/12/18 02:38:24;;;;;;;1.65;0.75;;;6.90;99.90;;;;;;4384799;32;20050;-58
2020/12/18 02:40:50;;;;;;;1.10;1.05;;;6.90;99.90;;;;;;4383890;32;20091;-56
2020/12/18 02:43:16;;;;;;;0.43;0.43;;;7.00;99.90;;;;;;4383880;32;20063;-53
2020/12/18 02:45:42;;;;;;;0.55;0.55;;;7.00;99.90;;;;;;4383332;32;20067;-55
2020/12/18 02:48:07;;;;;;;0.60;0.60;;;7.00;99.90;;;;;;4384808;32;20082;-57
2020/12/18 02:50:33;;;;;;;0.73;0.73;;;7.00;99.90;;;;;;4383380;32;20059;-57
2020/12/18 02:53:08;;;;;;;0.68;0.68;;;6.90;99.90;;;;;;4383879;32;20079;-54
2020/12/18 02:55:33;;;;;;;2.53;0.57;;;7.00;99.90;;;;;;4383893;32;20122;-55
2020/12/18 02:57:59;;;;;;;0.70;0.70;;;7.00;99.90;;;;;;4384595;32;20436;-56
2020/12/18 03:00:24;;;;;;;0.90;0.90;;;7.00;99.90;;;;;;4384439;32;20079;-58
2020/12/18 03:02:50;;;;;;;0.50;0.50;;;7.00;99.90;;;;;;4383570;32;20082;-55
2020/12/18 03:05:15;;;;;;;2.78;0.93;;;7.10;99.90;;;;;;4388044;32;20066;-53
2020/12/18 03:07:41;;;;;;;0.30;0.30;;;7.00;99.90;;;;;;4399419;32;20082;-53
2020/12/18 03:10:06;;;;;;;3.10;0.75;;;7.00;99.90;;;;;;4396670;32;20092;-58
2020/12/18 03:12:31;;;;;;;1.15;1.05;;;6.90;99.90;;;;;;4384637;32;20468;-56
2020/12/18 03:14:57;;;;;;;5.03;1.73;;;6.90;99.90;;;;;;4384005;32;20083;-58
2020/12/18 03:17:22;;;;;;;0.68;0.68;;;6.90;99.90;;;;;;4387851;32;20066;-57
2020/12/18 03:19:48;;;;;;;7.43;1.50;;;6.90;99.90;;;;;;4398966;32;20184;-55
2020/12/18 03:22:13;;;;;;;0.37;0.37;;;7.00;99.90;;;;;;4399739;32;20061;-54
2020/12/18 03:24:39;;;;;;;4.50;1.27;;;7.00;99.90;;;;;;4398432;32;20448;-56
2020/12/18 03:27:04;;;;;;;0.77;0.77;;;7.00;99.90;;;;;;4399013;32;20065;-55
2020/12/18 03:29:30;;;;;;;20.58;4.00;;;7.00;99.90;;;;;;4398274;32;20070;-56
2020/12/18 03:31:55;;;;;;;3.58;0.90;;;7.00;99.90;;;;;;4398120;32;20511;-56
2020/12/18 03:34:20;;;;;;;1.12;1.02;;;7.00;99.90;;;;;;4400579;32;20074;-56
2020/12/18 03:36:46;;;;;;;1.12;1.02;;;6.90;99.90;;;;;;4402213;32;20062;-58
2020/12/18 03:39:13;;;;;;;0.50;0.50;;;6.70;99.90;;;;;;4402493;32;20058;-57
2020/12/18 03:41:38;;;;;;;0.50;0.50;;;6.70;99.90;;;;;;4401943;32;20113;-55
2020/12/18 03:44:03;;;;;;;3.72;1.08;;;6.70;99.90;;;;;;4401106;32;20066;-57
2020/12/18 03:46:29;;;;;;;0.70;0.68;;;6.60;99.90;;;;;;4401367;32;20542;-54
2020/12/18 03:48:54;;;;;;;0.77;0.77;;;6.60;99.90;;;;;;4401858;32;20075;-57
2020/12/18 03:51:20;;;;;;;0.60;0.57;;;6.60;99.90;;;;;;4401178;32;20253;-54
2020/12/18 03:53:46;;;;;;;1.30;1.20;;;6.60;99.90;;;;;;4400032;32;20063;-54
2020/12/18 03:56:12;;;;;;;0.60;0.60;;;6.70;99.90;;;;;;4401634;32;20065;-56
2020/12/18 03:58:37;;;;;;;0.95;0.85;;;6.60;99.90;;;;;;4391202;32;20093;-58
2020/12/18 04:01:03;;;;;;;5.10;1.25;;;6.60;99.90;;;;;;4386701;32;20078;-57
2020/12/18 04:03:28;;;;;;;0.50;0.50;;;6.60;99.90;;;;;;4386731;32;20054;-56
2020/12/18 04:05:54;;;;;;;0.40;0.40;;;6.60;99.90;;;;;;4394783;32;20117;-55
2020/12/18 04:08:20;;;;;;;2.15;1.00;;;6.50;99.90;;;;;;4400643;32;20066;-57
2020/12/18 04:10:45;;;;;;;2.05;1.08;;;6.50;99.90;;;;;;4397077;32;20073;-57
2020/12/18 04:13:11;;;;;;;1.75;1.20;;;6.40;99.90;;;;;;4400179;32;20129;-55
2020/12/18 04:15:40;;;;;;;2.97;2.20;;;6.40;99.90;;;;;;4400938;32;20086;-54
2020/12/18 04:18:05;;;;;;;2.42;1.27;;;6.30;99.90;;;;;;4392587;32;20098;-57
2020/12/18 04:20:31;;;;;;;0.62;0.62;;;6.40;99.90;;;;;;4385496;32;20066;-58
2020/12/18 04:22:56;;;;;;;1.27;0.80;;;6.40;99.90;;;;;;4392560;32;20070;-55
2020/12/18 04:25:22;;;;;;;3.12;0.73;;;6.40;99.90;;;;;;4400853;32;20061;-53
2020/12/18 04:27:47;;;;;;;1.02;0.90;;;6.30;99.90;;;;;;4398931;32;20062;-54
2020/12/18 04:30:13;;;;;;;0.70;0.70;;;6.30;99.90;;;;;;4400715;32;20113;-58
2020/12/18 04:32:38;;;;;;;0.90;0.70;;;6.40;99.90;;;;;;4400939;32;20074;-53
2020/12/18 04:35:04;;;;;;;0.80;0.80;;;6.50;99.90;;;;;;4400651;32;20448;-57
2020/12/18 04:37:29;;;;;;;4.37;1.27;;;6.50;99.90;;;;;;4401042;32;20059;-56
2020/12/18 04:39:55;;;;;;;0.90;0.75;;;6.40;99.90;;;;;;4400078;32;20066;-56
2020/12/18 04:42:20;;;;;;;0.60;0.57;;;6.40;99.90;;;;;;4401217;32;20440;-54
2020/12/18 04:44:46;;;;;;;0.60;0.60;;;6.30;99.90;;;;;;4401147;32;20510;-56
2020/12/18 04:47:14;;;;;;;0.73;0.73;;;6.20;99.90;;;;;;4399410;32;20540;-55
2020/12/18 04:49:41;;;;;;;0.60;0.60;;;6.10;99.90;;;;;;4399208;32;20118;-57
2020/12/18 04:52:09;;;;;;;2.28;0.75;;;6.20;99.90;;;;;;4398663;32;20057;-54
2020/12/18 04:54:38;;;;;;;0.70;0.70;;;6.20;99.90;;;;;;4398567;32;20058;-53
2020/12/18 04:57:07;;;;;;;1.27;1.17;;;6.30;99.90;;;;;;4398945;32;20066;-53
2020/12/18 04:59:33;;;;;;;1.08;0.70;;;6.30;99.90;;;;;;4400212;32;20070;-58
2020/12/18 05:01:59;;;;;;;0.43;0.43;;;6.20;99.90;;;;;;4401134;32;20398;-54
2020/12/18 05:04:27;;;;;;;0.50;0.50;;;6.30;99.90;;;;;;4399540;32;20069;-56
2020/12/18 05:06:53;;;;;;;0.75;0.75;;;6.30;99.90;;;;;;4372895;32;20126;-57
2020/12/18 05:09:18;;;;;;;0.70;0.70;;;6.20;99.90;;;;;;4386452;32;20453;-53
2020/12/18 05:11:47;;;;;;;2.62;0.62;;;6.30;99.90;;;;;;4386699;32;20583;-57
2020/12/18 05:14:12;;;;;;;8.60;1.92;;;6.30;99.90;;;;;;4384935;32;20074;-54
2020/12/18 05:16:40;;;;;;;4.75;0.93;;;6.30;99.90;;;;;;4385491;32;20062;-56
2020/12/18 05:19:05;;;;;;;0.60;0.60;;;6.30;99.90;;;;;;4399805;32;20062;-58
2020/12/18 05:21:31;;;;;;;0.95;0.88;;;6.30;99.90;;;;;;4399888;32;20067;-56
2020/12/18 05:23:57;;;;;;;1.48;1.02;;;6.40;99.90;;;;;;4387217;32;20127;-54
2020/12/18 05:26:28;;;;;;;1.75;1.08;;;6.40;99.90;;;;;;4382613;32;20491;-55
2020/12/18 05:29:03;;;;;;;2.40;2.00;;;6.30;99.90;;;;;;4385900;32;20600;-54
2020/12/18 05:31:30;;;;;;;0.50;0.50;;;6.30;99.90;;;;;;4383949;32;20079;-54
2020/12/18 05:33:58;;;;;;;0.55;0.55;;;6.30;99.90;;;;;;4384555;32;20552;-56
2020/12/18 05:36:25;;;;;;;1.33;1.23;;;6.20;99.90;;;;;;4385732;32;20078;-57
2020/12/18 05:38:51;;;;;;;0.95;0.88;;;6.30;99.90;;;;;;4384589;32;20495;-55
2020/12/18 05:41:21;;;;;;;1.67;0.85;;;6.30;99.90;;;;;;4384985;32;20078;-56
2020/12/18 05:43:47;;;;;;;1.17;0.73;;;6.30;99.90;;;;;;4371295;32;20499;-57
2020/12/18 05:46:22;;;;;;;1.10;0.95;;;6.20;99.90;;;;;;4384410;32;20066;-54
2020/12/18 05:49:06;;;;;;;1.55;1.17;;;6.20;99.90;;;;;;4384082;32;20081;-57
2020/12/18 05:51:41;;;;;;;3.20;0.60;;;6.10;99.90;;;;;;4384285;32;20062;-53
2020/12/18 05:54:09;;;;;;;0.80;0.62;;;6.10;99.90;;;;;;4383318;32;20070;-53
2020/12/18 05:56:34;;;;;;;0.88;0.62;;;6.00;99.90;;;;;;4384778;32;20131;-57
2020/12/18 05:59:20;;;;;;;17.02;0.88;;;6.10;99.90;;;;;;4372125;32;20090;-57
2020/12/18 06:01:49;;;;;;;0.82;0.82;;;6.00;99.90;;;;;;4382404;32;20502;-58
2020/12/18 06:04:21;;;;;;;1.35;0.88;;;6.00;99.90;;;;;;4386934;32;20094;-57
2020/12/18 06:06:50;;;;;;;4.90;1.48;;;6.00;99.90;;;;;;4397891;32;20402;-56
2020/12/18 06:09:17;;;;;;;1.00;0.82;;;5.90;99.90;;;;;;4376316;32;20074;-56
2020/12/18 06:11:43;;;;;;;0.62;0.62;;;5.90;99.90;;;;;;4395689;32;20069;-53
2020/12/18 06:14:11;;;;;;;1.42;1.10;;;6.00;99.90;;;;;;4397384;32;20139;-54
2020/12/18 06:17:01;;;;;;;1.35;1.12;;;5.90;99.90;;;;;;4382038;32;20079;-58
2020/12/18 06:19:35;;;;;;;0.65;0.65;;;5.90;99.90;;;;;;4392642;32;20069;-53
2020/12/18 06:22:01;;;;;;;0.52;0.52;;;5.90;99.90;;;;;;4370476;32;20071;-55
2020/12/18 06:24:27;;;;;;;0.70;0.70;;;6.00;99.90;;;;;;4398152;32;20061;-57
2020/12/18 06:26:55;;;;;;;2.22;0.95;;;6.10;99.90;;;;;;4396713;32;20406;-58
2020/12/18 06:29:23;;;;;;;1.00;0.95;;;6.10;99.90;;;;;;4397373;32;20113;-55
2020/12/18 06:31:48;;;;;;;1.55;0.65;;;6.00;99.90;;;;;;4397530;32;20061;-54
2020/12/18 06:34:29;;;;;;;1.83;0.85;;;6.10;99.90;;;;;;4395833;32;20516;-55
2020/12/18 06:36:57;;;;;;;2.20;1.10;;;6.00;99.90;;;;;;4392656;32;20129;-57
2020/12/18 06:39:25;;;;;;;1.08;0.52;;;5.90;99.90;;;;;;4397325;32;20082;-57
2020/12/18 06:42:13;;;;;;;1.37;1.12;;;5.80;99.90;;;;;;4396674;32;20100;-58
2020/12/18 06:44:41;;;;;;;0.80;0.80;;;5.70;99.90;;;;;;4392427;32;20510;-58
2020/12/18 06:47:16;;;;;;;0.62;0.60;;;5.60;99.90;;;;;;4397081;32;20082;-57
2020/12/18 06:49:59;;;;;;;0.68;0.68;;;5.50;99.90;;;;;;4397632;32;20145;-57
2020/12/18 06:52:47;;;;;;;0.45;0.45;;;5.50;99.90;;;;;;4391701;32;20078;-57
2020/12/18 06:55:30;;;;;;;1.50;1.40;;;5.50;99.90;;;;;;4391221;32;20074;-57
2020/12/18 06:58:08;;;;;;;2.67;1.00;;;5.60;99.90;;;;;;4397521;32;20078;-58
2020/12/18 07:00:41;;;;;;;1.10;0.98;;;5.50;99.90;;;;;;4396890;32;20531;-58
2020/12/18 07:03:07;;;;;;;0.55;0.55;;;5.40;99.90;;;;;;4400549;32;20063;-53
2020/12/18 07:05:39;;;;;;;3.40;0.95;;;5.40;99.90;;;;;;4390706;32;20061;-59
2020/12/18 07:08:09;;;;;;;7.90;1.10;;;5.30;99.90;;;;;;4388923;32;20079;-57
2020/12/18 07:10:40;;;;;;;2.75;1.05;;;5.30;99.90;;;;;;4391141;32;20066;-57
2020/12/18 07:13:07;;;;;;;0.70;0.70;;;5.30;99.90;;;;;;4400497;32;20095;-54
2020/12/18 07:15:48;;;;;;;0.73;0.73;;;5.30;99.90;;;;;;4385898;32;20486;-56
2020/12/18 07:18:22;;;;;;;1.58;1.23;;;5.20;99.90;;;;;;4404029;32;20125;-54
2020/12/18 07:20:50;;;;;;;0.50;0.50;;;5.10;99.90;;;;;;4390331;32;20065;-55
2020/12/18 07:23:16;;;;;;;0.77;0.73;;;5.20;99.90;;;;;;4396952;32;20062;-58
2020/12/18 07:25:41;;;;;;;0.82;0.82;;;5.20;99.90;;;;;;4391969;32;20075;-57
2020/12/18 07:28:07;;;;;;;1.02;0.93;;;5.20;99.90;;;;;;4385247;32;20061;-56
2020/12/18 07:30:37;;;;;;;90.95;5.78;;;5.20;99.90;;;;;;4398511;32;20062;-57
2020/12/18 07:33:03;;;;;;;0.82;0.80;;;5.20;99.90;;;;;;4400380;32;20117;-57
2020/12/18 07:35:29;;;;;;;0.90;0.88;;;5.20;99.90;;;;;;4386579;32;20079;-57
2020/12/18 07:37:54;;;;;;;2.05;1.10;;;5.10;99.90;;;;;;4400359;32;20524;-58
2020/12/18 07:40:20;;;;;;;1.20;1.02;;;5.20;99.90;;;;;;4399467;32;20125;-54
2020/12/18 07:42:46;;;;;;;8.95;1.70;;;5.20;99.90;;;;;;4400036;32;20066;-53
2020/12/18 07:45:11;;;;;;;3.03;0.95;;;5.20;99.90;;;;;;4399533;32;20561;-56
2020/12/18 07:47:38;;;;;;;4.65;2.33;;;5.20;99.90;;;;;;4395077;32;20079;-54
2020/12/18 07:50:05;;;;;;;3.47;1.15;;;5.10;99.90;;;;;;4399437;32;20427;-58
2020/12/18 07:52:33;;;;;;;0.88;0.88;;;5.00;99.90;;;;;;4397038;32;20058;-56
2020/12/18 07:54:58;;;;;;;0.55;0.55;;;4.90;99.90;;;;;;4383889;32;20066;-55
2020/12/18 07:57:24;;;;;;;1.35;0.95;;;4.90;99.90;;;;;;4391034;32;20066;-55
2020/12/18 07:59:49;;;;;;;0.40;0.40;;;5.00;99.90;;;;;;4396486;32;20502;-55
2020/12/18 08:02:24;;;;;;;1.80;1.40;;;5.10;99.90;;;;;;4387356;32;20082;-58
2020/12/18 08:04:57;;;;;;;1.27;1.00;;;5.00;99.90;;;;;;4386866;32;20070;-57
2020/12/18 08:07:23;;;;;;;0.40;0.40;;;4.90;99.90;;;;;;4396383;32;20101;-56
2020/12/18 08:09:59;;;;;;;1.23;1.12;;;4.80;99.90;;;;;;4394090;32;20548;-56
2020/12/18 08:12:25;;;;;;;5.35;1.35;;;4.90;99.90;;;;;;4398323;32;20134;-53
2020/12/18 08:15:04;;;;;;;0.65;0.65;;;4.90;99.90;;;;;;4396300;32;20563;-56
2020/12/18 08:17:30;;;;;;;0.93;0.88;;;4.90;99.90;;;;;;4388173;32;20063;-56
2020/12/18 08:19:55;;;;;;;0.60;0.60;;;4.90;99.90;;;;;;4398768;32;20066;-56
2020/12/18 08:22:25;;;;;;;1.67;0.88;;;5.00;99.90;;;;;;4391569;32;20065;-52
2020/12/18 08:24:56;;;;;;;1.52;0.70;;;5.20;99.90;;;;;;4396726;32;20493;-52
2020/12/18 08:27:24;;;;;;;1.83;0.82;;;5.20;99.90;;;;;;4393637;32;20121;-54
2020/12/18 08:29:50;;;;;;;1.67;1.23;;;5.10;99.90;;;;;;4394433;32;20373;-57
2020/12/18 08:32:27;;;;;;;0.55;0.55;;;5.20;99.90;;;;;;4392110;32;20536;-55
2020/12/18 08:35:03;;;;;;;0.62;0.50;;;5.20;99.90;;;;;;4393086;32;20126;-53
2020/12/18 08:37:29;;;;;;;0.40;0.40;;;5.30;99.90;;;;;;4389799;32;20077;-55
2020/12/18 08:39:55;;;;;;;1.42;1.15;;;5.50;99.90;;;;;;4381178;32;91837;-56
2020/12/18 08:42:21;;;;;;;2.20;0.88;;;5.50;99.90;;;;;;4387423;32;20062;-56
2020/12/18 08:44:47;;;;;;;1.00;1.00;;;5.60;99.90;;;;;;4389187;32;20066;-54
2020/12/18 08:47:30;;;;;;;0.52;0.52;;;5.60;99.90;;;;;;4385305;32;20082;-54
2020/12/18 08:49:57;;;;;;;0.70;0.70;;;5.50;99.90;;;;;;4399907;32;20066;-56
2020/12/18 08:52:27;;;;;;;5.15;2.08;;;5.60;99.90;;;;;;4388815;32;20062;-54
2020/12/18 08:55:03;;;;;;;0.70;0.70;;;5.70;99.90;;;;;;4383951;32;20078;-56
2020/12/18 08:57:31;;;;;;;0.77;0.77;;;5.80;99.90;;;;;;4383524;32;20070;-56
2020/12/18 09:00:17;;;;;;;2.62;1.20;;;5.70;99.90;;;;;;4384282;32;20078;-56
2020/12/18 09:02:48;;;;;;;5.57;2.35;;;5.90;99.90;;;;;;4398867;32;20158;-56
2020/12/18 09:05:23;;;;;;;0.82;0.82;;;5.90;99.90;;;;;;4386746;32;20065;-55
2020/12/18 09:07:51;;;;;;;5.30;1.15;;;5.90;99.90;;;;;;4397237;32;20065;-56
2020/12/18 09:10:41;;;;;;;0.43;0.43;;;5.80;99.90;;;;;;4396842;32;20078;-57
2020/12/18 09:13:14;;;;;;;0.70;0.70;;;5.90;99.90;;;;;;4385092;32;20078;-54
2020/12/18 09:15:41;;;;;;;0.62;0.62;;;6.00;99.90;;;;;;4389735;32;20099;-57
2020/12/18 09:18:09;;;;;;;2.40;0.73;;;6.10;99.90;;;;;;4397063;32;20095;-57
2020/12/18 09:20:38;;;;;;;2.65;1.23;;;6.10;99.90;;;;;;4389791;32;20098;-54
2020/12/18 09:23:07;;;;;;;1.92;0.93;;;6.10;99.90;;;;;;4374868;32;20130;-58
2020/12/18 09:25:36;;;;;;;2.37;1.37;;;6.00;99.90;;;;;;4388465;32;20071;-57
2020/12/18 09:28:02;;;;;;;1.55;1.45;;;6.20;99.90;;;;;;4396048;32;20073;-56
2020/12/18 09:30:29;;;;;;;0.68;0.68;;;6.30;99.90;;;;;;4397765;32;20611;-56
2020/12/18 09:33:14;;;;;;;3.10;1.02;;;6.20;99.90;;;;;;4396375;32;20086;-55
2020/12/18 09:35:41;;;;;;;5.68;1.52;;;6.30;99.90;;;;;;4395512;32;20071;-57
2020/12/18 09:38:07;;;;;;;6.80;1.58;;;6.40;99.90;;;;;;4398077;32;20136;-56
2020/12/18 09:40:32;;;;;;;0.77;0.77;;;6.50;99.90;;;;;;4379572;32;21000;-53
2020/12/18 09:42:58;;;;;;;0.93;0.85;;;6.60;99.90;;;;;;4390225;32;20082;-55
2020/12/18 09:45:23;;;;;;;0.52;0.52;;;6.80;99.90;;;;;;4399036;32;20058;-55
2020/12/18 09:47:49;;;;;;;0.50;0.50;;;7.00;99.90;;;;;;4393666;32;20094;-57
2020/12/18 09:50:14;;;;;;;3.70;0.90;;;7.00;99.90;;;;;;4397393;32;20158;-58
2020/12/18 09:52:40;;;;;;;0.50;0.50;;;7.10;99.90;;;;;;4399430;32;20069;-57
2020/12/18 09:55:05;;;;;;;1.15;1.05;;;7.10;99.90;;;;;;4398347;32;20122;-54
2020/12/18 09:57:34;;;;;;;1.17;1.08;;;7.20;99.90;;;;;;4398828;32;20082;-53
2020/12/18 10:00:03;;;;;;;0.85;0.82;;;7.20;99.90;;;;;;4398869;32;20058;-55
2020/12/18 10:02:29;;;;;;;2.30;1.10;;;7.20;99.90;;;;;;4399042;32;20502;-54
2020/12/18 10:04:55;;;;;;;0.52;0.52;;;7.30;99.90;;;;;;4396270;32;20122;-58
2020/12/18 10:07:20;;;;;;;6.20;2.40;;;7.30;99.90;;;;;;4399202;32;20075;-54
2020/12/18 10:09:45;;;;;;;2.37;1.62;;;7.50;99.90;;;;;;4396327;32;20498;-55
2020/12/18 10:12:11;;;;;;;0.60;0.60;;;7.40;99.90;;;;;;4395474;32;20069;-52
2020/12/18 10:14:36;;;;;;;2.78;0.98;;;7.50;99.90;;;;;;4397991;32;20074;-55
2020/12/18 10:17:02;;;;;;;1.37;1.15;;;7.50;99.90;;;;;;4395914;32;20089;-53
2020/12/18 10:19:28;;;;;;;0.90;0.82;;;7.60;99.90;;;;;;4395309;32;20465;-55
2020/12/18 10:21:55;;;;;;;1.60;1.50;;;7.70;99.90;;;;;;4387826;32;20065;-56
2020/12/18 10:24:20;;;;;;;1.05;0.70;;;7.70;99.90;;;;;;4398436;32;20126;-53
2020/12/18 10:26:48;;;;;;;0.85;0.80;;;7.90;99.90;;;;;;4397483;32;20413;-57
2020/12/18 10:29:13;;;;;;;0.62;0.62;;;8.00;99.90;;;;;;4383646;32;20135;-54
2020/12/18 10:31:39;;;;;;;2.40;0.70;;;8.10;99.90;;;;;;4396901;32;20496;-55
2020/12/18 10:34:04;;;;;;;0.50;0.50;;;8.10;99.90;;;;;;4397725;32;20137;-52
2020/12/18 10:36:30;;;;;;;1.40;1.25;;;8.10;99.90;;;;;;4397963;32;20082;-57
2020/12/18 10:38:55;;;;;;;0.45;0.45;;;8.20;99.90;;;;;;4398587;32;20118;-56
2020/12/18 10:41:21;;;;;;;1.23;0.65;;;8.40;99.90;;;;;;4387836;32;20276;-56
2020/12/18 10:43:46;;;;;;;0.55;0.55;;;8.50;99.90;;;;;;4392063;32;20170;-53
2020/12/18 10:46:12;;;;;;;0.60;0.60;;;8.50;99.90;;;;;;4387207;32;20078;-53
2020/12/18 10:48:37;;;;;;;1.40;0.80;;;8.50;99.90;;;;;;4396930;32;20061;-54
2020/12/18 10:51:03;;;;;;;0.60;0.60;;;8.50;99.90;;;;;;4401524;32;20117;-53
2020/12/18 10:53:28;;;;;;;0.60;0.60;;;8.40;99.90;;;;;;4398046;32;20083;-56
2020/12/18 10:55:54;;;;;;;0.40;0.40;;;8.50;99.90;;;;;;4400347;32;20147;-56
2020/12/18 10:58:19;;;;;;;0.60;0.60;;;8.60;99.90;;;;;;4400650;32;20071;-52
2020/12/18 11:00:45;;;;;;;1.55;0.98;;;8.80;99.90;;;;;;4399524;32;20082;-52
2020/12/18 11:03:10;;;;;;;1.70;0.68;;;8.80;99.90;;;;;;4400195;32;20381;-57
2020/12/18 11:05:35;;;;;;;0.40;0.40;;;8.90;99.90;;;;;;4395034;32;20138;-56
2020/12/18 11:08:01;;;;;;;0.80;0.60;;;8.90;99.90;;;;;;4400577;32;20074;-57
2020/12/18 11:10:26;;;;;;;0.95;0.88;;;9.10;99.90;;;;;;4397312;32;20148;-54
2020/12/18 11:12:52;;;;;;;0.73;0.73;;;9.20;99.90;;;;;;4398402;32;20066;-55
2020/12/18 11:15:17;;;;;;;1.27;0.60;;;9.30;99.90;;;;;;4394984;32;20104;-57
2020/12/18 11:17:44;;;;;;;1.25;0.80;;;9.40;99.90;;;;;;4396698;32;20074;-54
2020/12/18 11:20:10;;;;;;;1.00;0.70;;;9.50;99.90;;;;;;4398723;32;20129;-57
2020/12/18 11:22:36;;;;;;;0.50;0.50;;;9.70;99.90;;;;;;4400422;32;20063;-55
2020/12/18 11:25:02;;;;;;;0.40;0.40;;;9.60;99.90;;;;;;4399339;32;20508;-56
2020/12/18 11:27:28;;;;;;;1.17;0.88;;;9.50;99.90;;;;;;4401223;32;20445;-56
2020/12/18 11:29:54;;;;;;;1.55;1.27;;;9.60;99.90;;;;;;4388734;32;20086;-54
2020/12/18 11:32:19;;;;;;;2.22;0.93;;;9.70;99.90;;;;;;4399135;32;20441;-57
2020/12/18 11:34:45;;;;;;;0.43;0.43;;;9.60;99.90;;;;;;4396306;32;20078;-57
2020/12/18 11:37:11;;;;;;;0.50;0.50;;;9.80;99.90;;;;;;4398633;32;20122;-55
2020/12/18 11:39:36;;;;;;;1.27;0.60;;;9.80;99.90;;;;;;4392457;32;20534;-55
2020/12/18 11:42:02;;;;;;;1.05;0.88;;;9.90;99.90;;;;;;4401123;32;20382;-57
2020/12/18 11:44:27;;;;;;;0.73;0.65;;;9.80;99.90;;;;;;4390778;32;20122;-56
2020/12/18 11:46:52;;;;;;;0.40;0.40;;;9.70;99.90;;;;;;4399973;32;20082;-57
2020/12/18 11:49:18;;;;;;;3.25;0.85;;;9.80;99.90;;;;;;4403361;32;20098;-54
2020/12/18 11:51:43;;;;;;;0.62;0.62;;;9.90;99.90;;;;;;4400619;32;20530;-54
2020/12/18 11:54:09;;;;;;;0.77;0.60;;;9.80;99.90;;;;;;4401124;32;20066;-56
2020/12/18 11:56:34;;;;;;;2.28;0.75;;;9.70;99.90;;;;;;4380175;32;20118;-55
2020/12/18 11:59:00;;;;;;;0.57;0.57;;;9.80;99.90;;;;;;4395064;32;20121;-57
2020/12/18 12:01:26;;;;;;;0.65;0.60;;;10.10;99.90;;;;;;4400966;32;20059;-53
2020/12/18 12:03:53;;;;;;;1.75;0.75;;;10.40;99.90;;;;;;4400491;32;20058;-57
2020/12/18 12:06:19;;;;;;;5.43;0.75;;;10.90;99.90;;;;;;4392825;32;20058;-55
2020/12/18 12:08:45;;;;;;;3.97;1.00;;;11.10;99.90;;;;;;4396455;32;20094;-57
2020/12/18 12:11:12;;;;;;;3.15;0.80;;;11.40;99.90;;;;;;4399507;32;20086;-54
2020/12/18 12:13:38;;;;;;;0.70;0.70;;;11.80;99.90;;;;;;4391705;32;20077;-55
2020/12/18 12:16:05;;;;;;;0.40;0.40;;;11.40;99.90;;;;;;4398785;32;20111;-54
2020/12/18 12:18:30;;;;;;;1.37;1.12;;;11.50;99.90;;;;;;4394621;32;20073;-55
2020/12/18 12:20:56;;;;;;;0.80;0.73;;;11.90;99.90;;;;;;4398760;32;20058;-53
2020/12/18 12:23:21;;;;;;;0.45;0.45;;;11.90;99.90;;;;;;4390411;32;20087;-58
2020/12/18 12:25:47;;;;;;;0.47;0.47;;;12.00;99.90;;;;;;4374780;32;20066;-56
2020/12/18 12:28:12;;;;;;;0.80;0.70;;;11.90;99.90;;;;;;4398438;32;20078;-57
2020/12/18 12:30:38;;;;;;;3.83;0.70;;;11.70;99.90;;;;;;4398413;32;20081;-52
2020/12/18 12:33:03;;;;;;;5.45;1.75;;;11.70;99.90;;;;;;4397279;32;20082;-57
2020/12/18 12:35:29;;;;;;;0.50;0.50;;;11.90;99.90;;;;;;4398149;32;20602;-57
2020/12/18 12:37:54;;;;;;;1.33;1.23;;;11.90;99.90;;;;;;4399209;32;20085;-56
2020/12/18 12:40:19;;;;;;;1.83;1.15;;;12.20;99.90;;;;;;4399779;32;20055;-57
2020/12/18 12:42:45;;;;;;;0.55;0.55;;;12.20;99.90;;;;;;4397584;32;20540;-56
2020/12/18 12:45:11;;;;;;;0.57;0.57;;;12.20;99.90;;;;;;4392117;32;20074;-58
2020/12/18 12:47:36;;;;;;;0.30;0.30;;;12.20;99.90;;;;;;4390232;32;20090;-57
2020/12/18 12:50:04;;;;;;;0.50;0.50;;;11.90;99.90;;;;;;4399022;32;20086;-55
2020/12/18 12:52:29;;;;;;;0.50;0.50;;;11.80;99.90;;;;;;4399860;32;20061;-56
2020/12/18 12:54:55;;;;;;;2.42;0.95;;;12.10;99.90;;;;;;4397886;32;20089;-55